Time;durP1;ratioP1;P1;durP2;ratioP2;P2;SDS_P1;SDS_P2;PMS_P1;PMS_P2;Temp;Humidity;BMP_temperature;BMP_pressure;BME280_temperature;BME280_humidity;BME280_pressure;Samples;Min_cycle;Max_cycle;Signal;HPM_P1;HPM_P2
2021/12/22 00:01:51;;;;;;;5.07;3.70;;;-0.50;99.90;;;-0.60;86.96;101651.66;5030143;28;20204;-64
2021/12/22 00:04:23;;;;;;;3.50;3.05;;;-0.60;99.90;;;-0.58;86.93;101650.78;5028764;28;20194;-64
2021/12/22 00:06:50;;;;;;;7.28;4.30;;;-0.60;99.90;;;-0.56;86.94;101653.34;5028433;28;20233;-64
2021/12/22 00:09:17;;;;;;;6.10;3.22;;;-0.50;99.90;;;-0.60;87.65;101649.97;5030180;28;20587;-64
2021/12/22 00:11:44;;;;;;;6.60;3.80;;;-0.60;99.90;;;-0.62;87.11;101645.72;5031745;28;20674;-64
2021/12/22 00:14:12;;;;;;;3.53;3.22;;;-0.60;99.90;;;-0.64;87.23;101639.75;5030660;28;20210;-64
2021/12/22 00:16:38;;;;;;;4.85;3.53;;;-0.70;99.90;;;-0.65;87.21;101636.34;5031682;28;20198;-64
2021/12/22 00:19:05;;;;;;;3.97;3.38;;;-0.60;99.90;;;-0.62;86.91;101638.03;5030255;28;20252;-65
2021/12/22 00:21:32;;;;;;;10.80;2.70;;;-0.60;99.90;;;-0.63;86.86;101629.47;5029753;28;20662;-65
2021/12/22 00:23:59;;;;;;;4.15;2.70;;;-0.60;99.90;;;-0.67;87.08;101629.53;5030675;28;20281;-64
2021/12/22 00:26:27;;;;;;;5.30;3.53;;;-0.70;99.90;;;-0.70;86.77;101625.28;5029303;28;20226;-64
2021/12/22 00:28:54;;;;;;;3.50;2.88;;;-0.70;99.90;;;-0.71;86.93;101631.28;5047124;28;20252;-64
2021/12/22 00:31:22;;;;;;;2.53;2.38;;;-0.70;99.90;;;-0.75;87.37;101634.72;5028776;28;20285;-64
2021/12/22 00:33:51;;;;;;;8.32;3.10;;;-0.80;99.90;;;-0.77;87.03;101633.91;5028845;28;20208;-64
2021/12/22 00:36:22;;;;;;;3.47;2.92;;;-0.80;99.90;;;-0.82;86.95;101628.81;5028765;28;20722;-64
2021/12/22 00:38:52;;;;;;;5.47;3.05;;;-0.80;99.90;;;-0.84;86.52;101619.44;5013172;28;20425;-65
2021/12/22 00:41:19;;;;;;;3.13;2.80;;;-0.90;99.90;;;-0.84;87.12;101624.56;5029406;28;20573;-63
2021/12/22 00:43:46;;;;;;;2.63;2.42;;;-0.80;99.90;;;-0.87;86.79;101622.03;5026928;28;20198;-62
2021/12/22 00:46:14;;;;;;;4.50;3.00;;;-0.90;99.90;;;-0.91;86.81;101616.09;5029077;28;20194;-63
2021/12/22 00:48:41;;;;;;;3.65;3.30;;;-0.90;99.90;;;-0.94;86.48;101616.09;5028698;28;20725;-63
2021/12/22 00:51:09;;;;;;;5.78;3.63;;;-0.90;99.90;;;-0.97;87.30;101622.97;5028137;28;20209;-63
2021/12/22 00:53:36;;;;;;;5.13;3.90;;;-1.00;99.90;;;-0.97;87.20;101631.53;5028736;28;20666;-63
2021/12/22 00:56:04;;;;;;;5.43;3.25;;;-1.00;99.90;;;-0.97;87.38;101621.28;5028619;28;20202;-62
2021/12/22 00:58:31;;;;;;;7.38;4.72;;;-1.00;99.90;;;-0.98;87.71;101626.41;5029876;28;20224;-63
2021/12/22 01:00:59;;;;;;;6.40;4.03;;;-1.00;99.90;;;-1.03;88.51;101631.59;5030116;28;20202;-63
2021/12/22 01:03:27;;;;;;;6.07;3.85;;;-1.00;99.90;;;-1.01;88.17;101642.66;5029928;28;20208;-63
2021/12/22 01:05:54;;;;;;;4.78;3.45;;;-1.00;99.90;;;-0.97;88.25;101640.91;5029140;28;20252;-63
2021/12/22 01:08:22;;;;;;;8.57;5.15;;;-0.90;99.90;;;-0.94;88.58;101643.47;5029674;28;20622;-62
2021/12/22 01:10:49;;;;;;;7.45;5.10;;;-0.90;99.90;;;-0.95;88.76;101639.19;5010024;28;20681;-63
2021/12/22 01:13:16;;;;;;;7.60;4.78;;;-0.90;99.90;;;-0.97;89.03;101643.47;5009593;28;20213;-63
2021/12/22 01:15:43;;;;;;;13.52;5.70;;;-0.90;99.90;;;-0.95;89.08;101641.75;5027437;28;20204;-62
2021/12/22 01:18:28;;;;;;;6.35;4.30;;;-0.90;99.90;;;-1.00;88.88;101644.34;5028925;28;20218;-62
2021/12/22 01:21:09;;;;;;;11.05;5.03;;;-0.90;99.90;;;-0.93;88.55;101650.25;5029442;28;20567;-63
2021/12/22 01:23:51;;;;;;;8.68;4.55;;;-0.90;99.90;;;-0.95;88.77;101649.44;5025283;28;20223;-63
2021/12/22 01:26:18;;;;;;;9.07;4.75;;;-0.90;99.90;;;-0.97;88.93;101654.56;5026158;28;20722;-62
2021/12/22 01:28:45;;;;;;;7.63;5.10;;;-0.90;99.90;;;-0.99;88.29;101650.31;5031385;28;20313;-63
2021/12/22 01:31:15;;;;;;;7.50;4.72;;;-0.90;99.90;;;-0.99;89.16;101650.31;5027932;28;20198;-62
2021/12/22 01:33:43;;;;;;;3.88;3.30;;;-0.90;99.90;;;-0.99;89.24;101655.44;5028057;28;20229;-63
2021/12/22 01:36:10;;;;;;;5.25;3.95;;;-0.90;99.90;;;-0.99;88.88;101656.31;5029653;28;20654;-63
2021/12/22 01:38:37;;;;;;;6.45;4.57;;;-0.90;99.90;;;-0.97;88.93;101664.81;5029759;28;20241;-63
2021/12/22 01:41:04;;;;;;;7.90;4.65;;;-0.90;99.90;;;-1.00;88.93;101654.59;5027901;28;20202;-63
2021/12/22 01:43:31;;;;;;;11.02;4.78;;;-0.90;99.90;;;-0.98;89.44;101657.16;5036378;28;20198;-63
2021/12/22 01:51:47;;;;;;;7.35;4.70;;;-0.90;99.90;;;-1.08;89.80;101661.50;5032990;28;20209;-63
2021/12/22 01:54:38;;;;;;;10.85;5.45;;;-1.00;99.90;;;-1.06;90.11;101666.59;5032454;28;20201;-63
2021/12/22 01:57:11;;;;;;;7.35;4.93;;;-1.00;99.90;;;-1.05;89.27;101670.88;5032158;28;20203;-64
2021/12/22 01:59:45;;;;;;;7.20;4.75;;;-1.00;99.90;;;-1.06;89.77;101675.13;5032012;28;20226;-64
2021/12/22 02:02:14;;;;;;;8.25;4.47;;;-1.00;99.90;;;-1.06;89.16;101684.53;5032998;28;20581;-63
2021/12/22 02:04:42;;;;;;;5.90;4.55;;;-1.00;99.90;;;-1.09;89.26;101680.31;5032712;28;20205;-64
2021/12/22 02:07:11;;;;;;;4.40;3.70;;;-1.10;99.90;;;-1.12;89.77;101682.03;5032832;28;20582;-64
2021/12/22 02:09:59;;;;;;;5.70;3.90;;;-1.10;99.90;;;-1.10;89.83;101680.28;5032313;28;20204;-64
2021/12/22 02:12:28;;;;;;;3.80;2.83;;;-1.10;99.90;;;-1.08;89.55;101688.81;5030870;28;20229;-64
2021/12/22 02:14:55;;;;;;;3.58;2.60;;;-1.10;99.90;;;-1.10;88.72;101691.41;5033670;28;20206;-63
2021/12/22 02:17:22;;;;;;;3.65;3.22;;;-1.10;99.90;;;-1.14;88.53;101699.09;5031619;28;20201;-63
2021/12/22 02:19:49;;;;;;;4.10;3.15;;;-1.10;99.90;;;-1.17;88.53;101697.41;5030993;28;20301;-63
2021/12/22 02:22:17;;;;;;;3.80;2.92;;;-1.20;99.90;;;-1.19;88.59;101701.69;5031655;28;20205;-63
2021/12/22 02:24:50;;;;;;;4.70;2.92;;;-1.20;99.90;;;-1.25;87.98;101700.88;5032661;28;20221;-64
2021/12/22 02:27:26;;;;;;;5.97;3.55;;;-1.20;99.90;;;-1.31;87.96;101694.13;5032761;28;20201;-63
2021/12/22 02:30:01;;;;;;;3.72;3.15;;;-1.30;99.90;;;-1.34;87.91;101693.28;5031035;28;20204;-63
2021/12/22 02:33:08;;;;;;;2.30;2.20;;;-1.30;99.90;;;-1.37;88.47;101683.91;5033624;28;20284;-65
2021/12/22 02:35:52;;;;;;;3.47;2.50;;;-1.30;99.90;;;-1.42;88.30;101682.22;5033375;28;20202;-64
2021/12/22 02:38:19;;;;;;;5.95;3.40;;;-1.40;99.90;;;-1.43;87.80;101683.09;5032556;28;20730;-63
2021/12/22 02:40:52;;;;;;;2.70;2.50;;;-1.40;99.90;;;-1.48;88.17;101684.81;5033219;28;20201;-64
2021/12/22 02:43:22;;;;;;;5.15;3.83;;;-1.40;99.90;;;-1.50;88.39;101687.41;5030258;28;20545;-63
2021/12/22 02:45:50;;;;;;;6.75;3.38;;;-1.50;99.90;;;-1.51;88.38;101684.88;5034742;28;20189;-63
2021/12/22 02:48:18;;;;;;;2.60;2.40;;;-1.50;99.90;;;-1.54;87.50;101682.31;5050199;28;20304;-65
2021/12/22 02:50:45;;;;;;;4.57;2.22;;;-1.50;99.90;;;-1.60;87.16;101681.47;5030380;28;20202;-64
2021/12/22 02:53:14;;;;;;;3.63;3.05;;;-1.60;99.90;;;-1.63;87.93;101676.41;5031339;28;20578;-63
2021/12/22 02:55:50;;;;;;;2.05;1.90;;;-1.60;99.90;;;-1.64;87.45;101677.25;5031664;28;20678;-63
2021/12/22 03:01:41;;;;;;;5.22;2.65;;;-1.70;99.90;;;-1.80;87.12;101674.78;5028138;28;20204;-63
2021/12/22 03:04:31;;;;;;;4.07;3.45;;;-1.80;99.90;;;-1.85;87.57;101679.91;5031667;28;20732;-63
2021/12/22 03:07:02;;;;;;;4.43;2.75;;;-1.90;99.90;;;-1.89;87.32;101672.25;5032185;28;20194;-63
2021/12/22 03:09:32;;;;;;;3.53;2.58;;;-1.80;99.90;;;-1.88;88.14;101681.66;5031787;28;20226;-63
2021/12/22 03:12:03;;;;;;;4.63;2.53;;;-1.90;99.90;;;-1.90;88.13;101666.31;5029732;28;20212;-63
2021/12/22 03:14:31;;;;;;;3.28;2.40;;;-1.80;99.90;;;-1.88;88.15;101674.81;5033259;28;20292;-64
2021/12/22 03:16:59;;;;;;;2.15;2.05;;;-1.80;99.90;;;-1.87;88.09;101679.06;5031299;28;20216;-62
2021/12/22 03:19:29;;;;;;;5.35;3.10;;;-1.80;99.90;;;-1.87;87.84;101679.06;5045628;28;20229;-63
2021/12/22 03:22:03;;;;;;;4.45;3.30;;;-1.80;99.90;;;-1.92;88.38;101675.69;5051587;28;20201;-63
2021/12/22 03:24:36;;;;;;;6.40;4.00;;;-1.90;99.90;;;-1.91;88.71;101677.38;5019603;28;20210;-65
2021/12/22 03:27:04;;;;;;;8.77;4.07;;;-1.80;99.90;;;-1.86;89.29;101674.81;4997557;28;20201;-63
2021/12/22 03:29:34;;;;;;;5.35;2.88;;;-1.80;99.90;;;-1.83;89.33;101677.38;5030021;28;20236;-64
2021/12/22 03:32:03;;;;;;;7.15;3.05;;;-1.70;99.90;;;-1.81;89.95;101670.53;5039692;28;20202;-63
2021/12/22 03:34:29;;;;;;;7.53;3.67;;;-1.70;99.90;;;-1.80;90.67;101660.28;5046048;28;20224;-63
2021/12/22 03:36:57;;;;;;;5.85;3.83;;;-1.70;99.90;;;-1.81;90.49;101658.56;5030867;28;20214;-62
2021/12/22 03:39:24;;;;;;;5.60;3.50;;;-1.70;99.90;;;-1.91;91.31;101656.94;5030237;28;20606;-63
2021/12/22 03:41:51;;;;;;;4.57;3.60;;;-1.80;99.90;;;-1.97;90.71;101654.41;5043725;28;20284;-63
2021/12/22 03:44:18;;;;;;;9.48;2.72;;;-1.90;99.90;;;-1.94;90.14;101656.94;5052106;28;20212;-63
2021/12/22 03:46:45;;;;;;;6.55;3.30;;;-1.90;99.90;;;-1.93;90.22;101655.22;5029924;28;20280;-64
2021/12/22 03:49:13;;;;;;;4.93;3.50;;;-1.90;99.90;;;-1.97;89.22;101653.53;5031573;28;20253;-63
2021/12/22 03:51:41;;;;;;;4.05;3.20;;;-1.90;99.90;;;-1.98;89.85;101652.69;5029166;28;20212;-63
2021/12/22 03:54:12;;;;;;;6.53;4.57;;;-1.90;99.90;;;-1.95;89.31;101657.81;5038999;28;20212;-63
2021/12/22 03:56:39;;;;;;;4.85;3.28;;;-1.90;99.90;;;-1.91;89.91;101654.38;5030361;28;20581;-63
2021/12/22 03:59:07;;;;;;;4.95;3.65;;;-1.80;99.90;;;-1.93;90.43;101657.78;5031769;28;20691;-63
2021/12/22 04:01:35;;;;;;;5.53;4.05;;;-1.80;99.90;;;-1.92;90.92;101657.81;5030019;28;20430;-64
2021/12/22 04:04:09;;;;;;;3.83;3.20;;;-1.90;99.90;;;-1.91;90.97;101649.25;5030350;28;20201;-64
2021/12/22 04:06:36;;;;;;;6.45;3.63;;;-1.80;99.90;;;-1.85;90.93;101649.22;5030038;28;20206;-63
2021/12/22 04:09:03;;;;;;;5.70;4.45;;;-1.70;99.90;;;-1.82;91.13;101651.78;5044216;28;20228;-63
2021/12/22 04:11:30;;;;;;;5.95;4.38;;;-1.70;99.90;;;-1.80;90.68;101655.16;5049674;28;20204;-64
2021/12/22 04:13:57;;;;;;;9.98;4.75;;;-1.70;99.90;;;-1.80;91.31;101654.31;5027809;28;20208;-63
2021/12/22 04:16:24;;;;;;;12.40;4.53;;;-1.70;99.90;;;-1.80;91.38;101657.72;5031144;28;20202;-63
2021/12/22 04:18:51;;;;;;;6.65;3.92;;;-1.70;99.90;;;-1.78;91.38;101661.13;5028809;28;20308;-64
2021/12/22 04:21:18;;;;;;;7.05;4.60;;;-1.70;99.90;;;-1.76;92.05;101659.41;5029332;28;20201;-64
2021/12/22 04:23:45;;;;;;;8.18;4.70;;;-1.60;99.90;;;-1.77;91.33;101661.97;5029655;28;20198;-63
2021/12/22 04:26:13;;;;;;;5.13;4.20;;;-1.70;99.90;;;-1.80;91.03;101667.97;5011796;28;20670;-64
2021/12/22 04:28:40;;;;;;;6.10;4.15;;;-1.70;99.90;;;-1.82;91.21;101677.34;5031327;28;20225;-63
2021/12/22 04:31:07;;;;;;;4.60;3.28;;;-1.70;99.90;;;-1.82;91.06;101672.22;5029823;28;20205;-63
2021/12/22 04:33:35;;;;;;;7.30;4.35;;;-1.70;99.90;;;-1.84;91.24;101665.41;5042291;28;20209;-63
2021/12/22 04:36:02;;;;;;;7.18;3.30;;;-1.70;99.90;;;-1.87;91.37;101671.41;5031270;28;20209;-63
2021/12/22 04:38:29;;;;;;;5.60;3.67;;;-1.80;99.90;;;-1.85;90.85;101663.69;5043112;28;20221;-64
2021/12/22 04:40:56;;;;;;;7.07;4.30;;;-1.70;99.90;;;-1.89;91.56;101674.81;5042573;28;20222;-63
2021/12/22 04:43:23;;;;;;;8.18;4.75;;;-1.80;99.90;;;-1.89;91.71;101677.38;5047754;28;20193;-63
2021/12/22 04:45:53;;;;;;;11.85;4.97;;;-1.80;99.90;;;-1.94;92.25;101672.28;5048908;28;20197;-63
2021/12/22 04:48:20;;;;;;;6.10;3.70;;;-1.80;99.90;;;-1.96;93.01;101676.53;5038726;28;20214;-63
2021/12/22 04:50:48;;;;;;;7.32;4.10;;;-1.90;99.90;;;-2.01;93.24;101660.38;5030866;28;20278;-63
2021/12/22 04:53:21;;;;;;;5.97;3.90;;;-1.90;99.90;;;-2.01;92.92;101652.72;5028462;28;20217;-63
2021/12/22 04:55:48;;;;;;;7.50;4.30;;;-1.90;99.90;;;-2.05;93.37;101651.03;5029411;28;20209;-63
2021/12/22 04:58:15;;;;;;;10.27;4.40;;;-2.00;99.90;;;-2.09;92.62;101651.91;5029975;28;20233;-63
2021/12/22 05:00:42;;;;;;;6.10;3.83;;;-2.00;99.90;;;-2.02;92.24;101652.72;5028184;28;20605;-62
2021/12/22 05:03:09;;;;;;;7.80;4.00;;;-1.90;99.90;;;-2.06;91.73;101651.88;5028825;28;20198;-63
2021/12/22 05:05:36;;;;;;;8.98;4.57;;;-2.00;99.90;;;-2.07;91.74;101654.44;5028107;28;20654;-63
2021/12/22 05:08:04;;;;;;;5.65;3.83;;;-2.00;99.90;;;-2.05;92.02;101657.84;5029685;28;20224;-63
2021/12/22 05:10:30;;;;;;;5.65;3.10;;;-1.90;99.90;;;-2.05;92.32;101656.16;5029982;28;20202;-64
2021/12/22 05:12:58;;;;;;;3.83;3.20;;;-1.90;99.90;;;-2.07;92.51;101651.91;5030493;28;20210;-63
2021/12/22 05:15:28;;;;;;;4.93;3.53;;;-2.00;99.90;;;-2.09;92.27;101644.25;5029472;28;20210;-62
2021/12/22 05:20:22;;;;;;;7.22;4.38;;;-2.00;99.90;;;-2.19;92.93;101649.41;5031261;28;20232;-63
2021/12/22 05:22:50;;;;;;;12.88;4.45;;;-2.10;99.90;;;-2.19;92.09;101645.09;5030100;28;20198;-63
2021/12/22 05:25:17;;;;;;;5.18;4.13;;;-2.10;99.90;;;-2.25;92.48;101652.81;5033724;28;20198;-64
2021/12/22 05:27:44;;;;;;;6.32;3.80;;;-2.20;99.90;;;-2.22;92.42;101654.50;5015595;28;20329;-63
2021/12/22 05:30:13;;;;;;;5.78;3.78;;;-2.10;99.90;;;-2.24;92.79;101646.84;5034463;28;20197;-64
2021/12/22 05:32:40;;;;;;;7.70;4.15;;;-2.10;99.90;;;-2.24;92.57;101639.19;5033175;28;20210;-63
2021/12/22 05:35:10;;;;;;;3.55;3.15;;;-2.20;99.90;;;-2.24;92.73;101644.28;5034045;28;20213;-63
2021/12/22 05:37:38;;;;;;;8.40;3.55;;;-2.20;99.90;;;-2.24;92.48;101641.75;5033586;28;20236;-63
2021/12/22 05:40:08;;;;;;;3.05;2.85;;;-2.10;99.90;;;-2.22;92.10;101647.69;5031777;28;20252;-63
2021/12/22 05:42:35;;;;;;;8.25;3.38;;;-2.10;99.90;;;-2.21;91.91;101643.41;5015413;28;20205;-63
2021/12/22 05:45:04;;;;;;;6.93;3.65;;;-2.10;99.90;;;-2.19;92.02;101647.66;5042489;28;20202;-63
2021/12/22 05:47:31;;;;;;;7.30;3.63;;;-2.10;99.90;;;-2.17;92.57;101656.19;5032424;28;20222;-63
2021/12/22 05:49:58;;;;;;;5.97;3.75;;;-2.10;99.90;;;-2.17;92.44;101657.91;5033574;28;20206;-63
2021/12/22 05:52:25;;;;;;;7.60;3.83;;;-2.10;99.90;;;-2.15;92.27;101656.19;5033749;28;20631;-64
2021/12/22 05:54:52;;;;;;;6.75;4.55;;;-2.10;99.90;;;-2.12;92.32;101659.56;5032379;28;20233;-64
2021/12/22 05:57:19;;;;;;;8.38;4.72;;;-2.00;99.90;;;-2.11;92.90;101665.56;5034224;28;20297;-63
2021/12/22 05:59:46;;;;;;;5.88;4.32;;;-2.00;99.90;;;-2.12;93.60;101669.81;5033547;28;20222;-64
2021/12/22 06:02:13;;;;;;;7.75;4.88;;;-2.00;99.90;;;-2.08;93.03;101668.06;5032494;28;20201;-63
2021/12/22 06:04:40;;;;;;;8.25;4.63;;;-2.00;99.90;;;-2.13;93.62;101665.53;5033932;28;20221;-64
2021/12/22 06:07:07;;;;;;;7.68;4.57;;;-2.00;99.90;;;-2.13;93.51;101660.41;5032430;28;20202;-63
2021/12/22 06:09:34;;;;;;;5.85;3.83;;;-2.00;99.90;;;-2.18;92.56;101659.59;5031986;28;20200;-65
2021/12/22 06:12:01;;;;;;;5.60;3.80;;;-2.10;99.90;;;-2.18;92.31;101657.06;5031651;28;20198;-64
2021/12/22 06:14:28;;;;;;;8.75;4.93;;;-2.10;99.90;;;-2.20;91.79;101660.47;5033294;28;20557;-63
2021/12/22 06:16:55;;;;;;;10.00;5.40;;;-2.10;99.90;;;-2.24;93.31;101666.44;5033253;28;20210;-63
2021/12/22 06:19:22;;;;;;;6.55;4.60;;;-2.10;99.90;;;-2.21;93.16;101666.41;5040600;28;20746;-63
2021/12/22 06:21:50;;;;;;;5.57;3.92;;;-2.10;99.90;;;-2.21;92.38;101677.50;5035637;28;20200;-64
2021/12/22 06:24:17;;;;;;;6.10;4.03;;;-2.10;99.90;;;-2.27;92.44;101674.09;5031507;28;20212;-64
2021/12/22 06:26:44;;;;;;;4.03;3.50;;;-2.20;99.90;;;-2.27;92.36;101674.97;5032877;28;20502;-63
2021/12/22 06:29:13;;;;;;;6.75;3.90;;;-2.20;99.90;;;-2.29;93.06;101675.81;5030082;28;20233;-62
2021/12/22 06:31:40;;;;;;;9.63;4.65;;;-2.20;99.90;;;-2.30;92.98;101679.25;5027604;28;20214;-63
2021/12/22 06:34:12;;;;;;;9.35;4.30;;;-2.20;99.90;;;-2.31;92.94;101685.19;5032369;28;20293;-62
2021/12/22 06:36:39;;;;;;;6.32;4.10;;;-2.20;99.90;;;-2.34;92.97;101688.63;5033472;28;20206;-64
2021/12/22 06:39:06;;;;;;;8.82;6.43;;;-2.30;99.90;;;-2.44;94.12;101695.47;5033957;28;20240;-63
2021/12/22 06:41:34;;;;;;;5.18;4.28;;;-2.30;99.90;;;-2.39;93.82;101698.03;5032552;28;20670;-63
2021/12/22 06:44:01;;;;;;;6.88;5.20;;;-2.30;99.90;;;-2.39;93.52;101700.56;5031102;28;20204;-64
2021/12/22 06:46:28;;;;;;;6.60;5.00;;;-2.30;99.90;;;-2.32;93.16;101709.09;5032960;28;20204;-64
2021/12/22 06:48:55;;;;;;;6.68;4.70;;;-2.20;99.90;;;-2.31;93.44;101703.97;5034726;28;20271;-64
2021/12/22 06:51:22;;;;;;;8.70;4.30;;;-2.20;99.90;;;-2.31;93.65;101714.19;5043677;28;20551;-64
2021/12/22 06:53:49;;;;;;;7.25;4.53;;;-2.20;99.90;;;-2.34;93.73;101709.06;5023414;28;20677;-64
2021/12/22 06:56:16;;;;;;;6.00;4.90;;;-2.20;99.90;;;-2.30;93.63;101713.34;5030687;28;20209;-64
2021/12/22 06:58:43;;;;;;;7.30;5.10;;;-2.20;99.90;;;-2.31;93.23;101709.06;5031645;28;20225;-64
2021/12/22 07:01:16;;;;;;;7.13;4.35;;;-2.20;99.90;;;-2.30;93.62;101709.94;5031398;28;20525;-64
2021/12/22 07:03:47;;;;;;;4.22;3.85;;;-2.20;99.90;;;-2.33;93.96;101705.66;5032208;28;20568;-64
2021/12/22 07:06:14;;;;;;;8.98;4.75;;;-2.20;99.90;;;-2.28;93.18;101714.19;5013396;28;20681;-64
2021/12/22 07:08:41;;;;;;;8.25;5.00;;;-2.10;99.90;;;-2.29;93.03;101717.59;5040224;28;20221;-65
2021/12/22 07:11:09;;;;;;;8.75;5.45;;;-2.20;99.90;;;-2.30;92.66;101718.47;5032291;28;20202;-64
2021/12/22 07:13:37;;;;;;;10.75;5.30;;;-2.20;99.90;;;-2.33;93.08;101713.34;5031404;28;20202;-64
2021/12/22 07:16:04;;;;;;;11.10;5.75;;;-2.20;99.90;;;-2.32;92.95;101717.56;5032679;28;20225;-65
2021/12/22 07:18:32;;;;;;;8.52;5.45;;;-2.20;99.90;;;-2.30;92.45;101713.34;5030332;28;20310;-64
2021/12/22 07:20:59;;;;;;;8.77;5.00;;;-2.20;99.90;;;-2.31;93.16;101714.19;5031430;28;20244;-64
2021/12/22 07:23:27;;;;;;;13.73;7.10;;;-2.20;99.90;;;-2.31;92.37;101708.22;5029955;28;20194;-64
2021/12/22 07:25:54;;;;;;;9.27;5.40;;;-2.20;99.90;;;-2.33;91.85;101707.38;5024150;28;20208;-63
2021/12/22 07:28:21;;;;;;;5.90;4.03;;;-2.20;99.90;;;-2.33;91.16;101705.66;5064559;22;20316;-67
2021/12/22 07:30:48;;;;;;;8.10;5.00;;;-2.20;99.90;;;-2.33;92.09;101710.78;5054438;28;20712;-67
2021/12/22 07:33:15;;;;;;;7.15;4.60;;;-2.20;99.90;;;-2.29;92.36;101711.63;5045479;28;20560;-69
2021/12/22 07:35:57;;;;;;;8.40;4.78;;;-2.20;99.90;;;-2.26;91.75;101722.69;5050703;28;20223;-69
2021/12/22 07:38:24;;;;;;;12.43;4.78;;;-2.10;99.90;;;-2.21;91.22;101725.22;5014080;28;20222;-67
2021/12/22 07:40:52;;;;;;;10.38;5.28;;;-2.10;99.90;;;-2.18;91.60;101712.44;5030545;28;20222;-65
2021/12/22 07:43:20;;;;;;;5.28;4.35;;;-2.00;99.90;;;-2.11;91.13;101716.69;5030053;28;20202;-66
2021/12/22 07:45:47;;;;;;;7.32;4.47;;;-1.90;99.90;;;-2.07;91.68;101720.94;5028735;28;20424;-67
2021/12/22 07:48:15;;;;;;;7.03;4.60;;;-1.90;99.90;;;-2.03;91.09;101713.25;5030424;28;20226;-66
2021/12/22 07:50:42;;;;;;;8.48;5.07;;;-1.90;99.90;;;-1.98;90.66;101714.06;5012915;28;20202;-66
2021/12/22 07:53:09;;;;;;;6.72;3.83;;;-1.80;99.90;;;-1.90;90.70;101724.28;5030668;28;20224;-67
2021/12/22 07:55:36;;;;;;;17.30;5.07;;;-1.70;99.90;;;-1.83;90.41;101715.75;5031401;28;20309;-67
2021/12/22 07:58:07;;;;;;;7.40;3.65;;;-1.70;99.90;;;-1.78;90.39;101719.09;5029218;28;20225;-67
2021/12/22 08:00:36;;;;;;;8.88;4.35;;;-1.60;99.90;;;-1.75;89.51;101717.41;5012137;28;20769;-66
2021/12/22 08:03:04;;;;;;;4.82;3.28;;;-1.60;99.90;;;-1.67;89.42;101713.09;5026892;28;20198;-67
2021/12/22 08:05:53;;;;;;;9.02;5.38;;;-1.50;99.90;;;-1.64;89.04;101718.19;5015034;28;20290;-70
2021/12/22 08:08:20;;;;;;;10.77;5.70;;;-1.50;99.90;;;-1.57;89.47;101712.19;5022450;28;20214;-67
2021/12/22 08:10:49;;;;;;;8.82;5.47;;;-1.40;99.90;;;-1.46;89.04;101719.81;5026796;28;20252;-68
2021/12/22 08:13:17;;;;;;;9.65;5.88;;;-1.30;99.90;;;-1.39;87.83;101716.34;5029304;28;20204;-66
2021/12/22 08:15:44;;;;;;;11.70;5.25;;;-1.20;99.90;;;-1.33;87.92;101712.91;5029268;28;20213;-67
2021/12/22 08:18:12;;;;;;;12.13;5.60;;;-1.10;99.90;;;-1.20;87.78;101712.81;5028918;28;20228;-67
2021/12/22 08:20:39;;;;;;;8.30;4.68;;;-1.00;99.90;;;-0.49;87.76;101713.94;5012924;28;20240;-65
2021/12/22 08:23:06;;;;;;;9.40;5.10;;;-0.30;99.90;;;0.82;83.05;101719.16;5017779;28;20332;-67
2021/12/22 08:25:34;;;;;;;7.13;4.40;;;1.20;99.90;;;2.39;77.02;101717.13;5026791;28;20208;-67
2021/12/22 08:28:01;;;;;;;8.32;5.50;;;3.00;99.90;;;4.05;69.28;101717.31;5019496;28;20226;-68
2021/12/22 08:30:28;;;;;;;9.68;6.00;;;4.80;99.90;;;5.61;63.14;101715.84;5028062;28;20668;-67
2021/12/22 08:32:58;;;;;;;7.75;5.38;;;6.40;99.90;;;6.82;57.85;101718.25;5023897;28;20221;-68
2021/12/22 08:35:28;;;;;;;8.67;5.60;;;7.70;99.30;;;7.61;54.89;101709.78;5004562;28;20665;-68
2021/12/22 08:40:41;;;;;;;11.03;6.03;;;9.70;93.60;;;9.84;48.87;101713.88;5028954;28;20669;-66
2021/12/22 08:43:08;;;;;;;11.10;6.43;;;10.70;88.30;;;10.90;45.53;101719.44;5030344;28;21010;-67
2021/12/22 08:45:35;;;;;;;11.73;6.63;;;11.90;78.80;;;11.54;43.65;101711.38;5026995;28;20648;-69
2021/12/22 08:48:02;;;;;;;9.10;6.53;;;12.70;72.10;;;12.69;41.41;101712.13;5028573;28;20660;-69
2021/12/22 08:50:30;;;;;;;8.33;6.53;;;13.90;67.40;;;13.65;40.07;101712.75;5028822;28;20648;-69
2021/12/22 08:52:57;;;;;;;9.33;6.90;;;15.00;64.00;;;14.44;37.74;101713.31;5006513;28;20782;-70
2021/12/22 08:55:24;;;;;;;11.13;7.60;;;15.90;59.60;;;14.27;36.91;101708.41;5029644;28;20621;-69
2021/12/22 08:57:51;;;;;;;10.43;7.43;;;15.80;57.40;;;13.96;36.97;101704.44;5028198;28;20638;-69
2021/12/22 09:00:18;;;;;;;10.50;7.13;;;15.40;56.60;;;13.43;37.69;101702.00;5028031;28;20727;-68
2021/12/22 09:02:45;;;;;;;12.47;7.60;;;14.90;56.90;;;12.40;38.76;101706.09;5012073;28;20716;-68
2021/12/22 09:05:13;;;;;;;10.43;7.23;;;13.90;57.70;;;11.21;40.90;101697.63;5021796;28;20636;-69
2021/12/22 09:07:40;;;;;;;9.80;6.33;;;12.60;60.10;;;9.13;44.74;101702.75;5021278;28;20617;-69
2021/12/22 09:10:07;;;;;;;11.33;7.47;;;10.00;64.90;;;7.54;48.43;101696.22;5010149;28;20772;-68
2021/12/22 09:12:34;;;;;;;8.57;6.77;;;8.10;72.30;;;6.24;52.06;101698.03;4993567;28;20609;-67
2021/12/22 09:15:01;;;;;;;15.73;7.27;;;6.50;81.80;;;5.32;54.85;101685.78;4998771;28;20736;-68
2021/12/22 09:17:28;;;;;;;9.50;6.43;;;5.50;91.50;;;4.44;57.78;101690.34;5029822;28;20691;-67
2021/12/22 09:19:55;;;;;;;10.20;6.30;;;4.50;96.00;;;3.78;60.16;101688.78;5028931;28;20657;-68
2021/12/22 09:22:23;;;;;;;6.97;4.93;;;3.90;99.90;;;3.33;62.22;101681.41;5046966;28;20664;-67
2021/12/22 09:24:50;;;;;;;8.23;5.50;;;3.50;99.90;;;3.01;63.88;101688.22;5027792;28;20624;-67
2021/12/22 09:27:17;;;;;;;9.10;5.70;;;3.10;99.90;;;2.78;65.30;101692.22;5029465;28;20197;-67
2021/12/22 09:29:44;;;;;;;7.78;5.20;;;2.90;99.90;;;2.61;66.76;101691.75;5028617;28;20226;-67
2021/12/22 09:32:15;;;;;;;10.98;6.22;;;2.70;99.90;;;2.23;68.34;101685.72;5029002;28;20565;-68
2021/12/22 09:34:46;;;;;;;9.50;5.47;;;2.40;99.90;;;2.14;68.87;101685.91;5028929;28;20225;-68
2021/12/22 09:37:13;;;;;;;8.68;5.75;;;2.20;99.90;;;1.97;69.59;101679.41;5020023;28;20300;-67
2021/12/22 09:39:40;;;;;;;16.67;6.38;;;2.10;99.90;;;1.83;70.57;101679.66;5029732;28;20228;-68
2021/12/22 09:42:08;;;;;;;10.75;5.72;;;1.90;99.90;;;1.69;71.38;101675.66;5030221;28;20263;-68
2021/12/22 09:44:45;;;;;;;7.15;4.07;;;1.90;99.90;;;1.68;71.66;101679.13;5023484;28;20209;-70
2021/12/22 09:47:23;;;;;;;10.88;5.78;;;1.90;99.90;;;1.58;72.43;101672.47;5028816;28;20592;-66
2021/12/22 09:50:08;;;;;;;7.03;5.15;;;1.70;99.90;;;1.51;73.15;101667.41;5012913;28;20229;-68
2021/12/22 09:52:37;;;;;;;8.20;5.07;;;1.70;99.90;;;1.55;73.37;101679.34;5029096;28;20229;-68
2021/12/22 09:55:07;;;;;;;12.75;5.60;;;1.70;99.90;;;1.61;74.21;101672.38;5009482;28;20226;-68
2021/12/22 09:57:34;;;;;;;9.98;6.50;;;1.80;99.90;;;1.66;73.94;101671.44;5029049;28;20305;-68
2021/12/22 10:00:06;;;;;;;8.70;4.95;;;1.90;99.90;;;1.76;73.69;101672.09;5018913;28;20206;-67
2021/12/22 10:02:33;;;;;;;7.55;4.80;;;2.00;99.90;;;1.81;73.83;101673.69;5013936;28;20226;-70
2021/12/22 10:05:01;;;;;;;8.98;6.00;;;2.00;99.90;;;1.86;73.67;101671.03;5028970;28;20205;-67
2021/12/22 10:07:30;;;;;;;7.85;4.70;;;2.10;99.90;;;2.04;73.20;101668.97;5029216;28;20213;-67
2021/12/22 10:10:09;;;;;;;9.75;6.05;;;2.30;99.90;;;2.15;73.29;101654.13;5013591;28;20229;-67
2021/12/22 10:12:36;;;;;;;9.15;5.35;;;2.40;99.90;;;2.21;72.35;101655.72;5015118;28;20582;-67
2021/12/22 10:15:07;;;;;;;9.48;6.15;;;2.40;99.90;;;2.23;72.64;101653.97;5028221;28;20214;-67
2021/12/22 10:17:39;;;;;;;7.53;5.82;;;2.40;99.90;;;2.23;72.54;101653.97;5023948;28;20299;-67
2021/12/22 10:20:20;;;;;;;13.13;6.65;;;2.40;99.90;;;2.16;72.97;101652.41;5030141;28;20622;-68
2021/12/22 10:22:50;;;;;;;8.35;5.82;;;2.30;99.90;;;2.18;73.22;101659.22;5022503;28;20229;-70
2021/12/22 10:25:22;;;;;;;9.50;5.72;;;2.40;99.90;;;2.16;73.34;101655.81;5009214;28;20240;-69
2021/12/22 10:28:07;;;;;;;10.77;6.18;;;2.30;99.90;;;2.14;73.37;101647.28;5010508;28;20198;-69
2021/12/22 10:30:37;;;;;;;7.72;4.72;;;2.30;99.90;;;2.20;73.27;101643.72;5011338;28;20202;-71
2021/12/22 10:33:13;;;;;;;7.65;5.40;;;2.40;99.90;;;2.31;73.13;101641.78;5015315;28;20226;-69
2021/12/22 10:35:44;;;;;;;11.57;6.10;;;2.50;99.90;;;2.38;72.58;101632.19;5032588;28;20209;-70